Nearby METAR Reports

 

KMRB - Martinsburg, West Virginia, USA
Distance from station: NNW 9mi, 14km
Updated: 11/30/2020 4:53pm
Overcast
Overcast
 Wind from WSW
Wind: WSW 6 mph , 9 km/h
Temperature: 52°F , 11°C
Dew Point: 46°F , 8°C
Humidity: 82%
Barometer: 29.39 inHg , 995.3 hPa
Clouds: Overcast
Visibility: 10 miles , 16 km
Cloud details: Overcast 4700 ft
2020/11/30 21:53 KMRB 302153Z 25005KT 10SM OVC047 11/08 A2939 RMK AO2 SLP953 T01110083
KOKV - Winchester Rgnl, Virginia, USA
Distance from station: SW 17mi, 28km
Updated: 11/30/2020 5:35pm
Overcast
Overcast
 Wind from W
Wind: W 17 mph , 28 km/h, Gust: 21 mph , 33 km/h
Temperature: 52°F , 11°C
Dew Point: 41°F , 5°C
Humidity: 67%
Barometer: 29.41 inHg , 995.9 hPa
Clouds: Overcast
Visibility: 10 miles , 16 km
Cloud details: Partly cloudy 3300 ft
Overcast 4200 ft
2020/11/30 22:35 KOKV 302235Z AUTO 27015G18KT 10SM SCT033 OVC042 11/05 A2941 RMK AO2
 
KJYO - Leesburg/Godfrey, Virginia, USA
Distance from station: SE 23mi, 38km
Updated: 11/30/2020 5:35pm
Overcast
Overcast
 Wind from NW
Wind: NW 6 mph , 9 km/h
Temperature: 50°F , 10°C
Wind Chill: 48°F , 9°C
Dew Point: 46°F , 8°C
Humidity: 88%
Barometer: 29.41 inHg , 995.9 hPa
Clouds: Overcast
Visibility: 10 miles , 16 km
Cloud details: Overcast 3300 ft
2020/11/30 22:35 KJYO 302235Z AUTO 32005KT 10SM OVC033 10/08 A2941 RMK AO2 LTG DSNT E
KFDK - Frederick, Maryland, USA
Distance from station: ENE 30mi, 48km
Updated: 11/30/2020 5:47pm
Overcast
Overcast
 Wind from SW
Wind: SW 7 mph , 11 km/h
Temperature: 54°F , 12°C
Dew Point: 52°F , 11°C
Humidity: 94%
Barometer: 29.41 inHg , 995.9 hPa
Clouds: Overcast
Visibility: 10 miles , 16 km
Cloud details: Overcast 4900 ft
2020/11/30 22:47 KFDK 302247Z 23006KT 10SM OVC049 12/11 A2941
 
KHGR - Hagerstown, Maryland, USA
Distance from station: NNE 30mi, 48km
Updated: 11/30/2020 4:53pm
Mostly cloudy
Mostly cloudy
 Wind from SW
Wind: SW 6 mph , 9 km/h
Temperature: 52°F , 11°C
Dew Point: 48°F , 9°C
Humidity: 88%
Barometer: 29.39 inHg , 995.3 hPa
Clouds: Mostly cloudy
Visibility: 10 miles , 16 km
Cloud details: Partly cloudy 600 ft
Mostly cloudy 3700 ft
Mostly cloudy 5000 ft
2020/11/30 21:53 KHGR 302153Z 23005KT 10SM SCT006 BKN037 BKN050 11/09 A2939 RMK AO2 SLP963 T01060094
KIAD - Wash Dc/Dulles, Virginia, USA
Distance from station: SE 34mi, 55km
Updated: 11/30/2020 5:34pm
Mostly cloudy
Mostly cloudy
 Wind from NW
Wind: NW 5 mph , 7 km/h
Temperature: 55°F , 13°C
Dew Point: 52°F , 11°C
Humidity: 88%
Barometer: 29.40 inHg , 995.6 hPa
Clouds: Mostly cloudy
Visibility: 10 miles , 16 km
Cloud details: Partly cloudy 1100 ft
Mostly cloudy 1600 ft
Mostly cloudy 3000 ft
2020/11/30 22:34 KIAD 302234Z 31004KT 10SM SCT011 BKN016 BKN030 13/11 A2940 RMK AO2 T01330106
 
KRSP - Nsf Thurmont, Maryland, USA
Distance from station: NE 34mi, 55km
Updated: 11/30/2020 5:49pm
Overcast
Overcast
 Wind from W
Wind: W 20 mph , 31 km/h, Gust: 33 mph , 54 km/h
Temperature: 45°F , 7°C
Wind Chill: 37°F , 3°C
Dew Point: 45°F , 7°C
Humidity: 100%
Barometer: 29.36 inHg , 994.2 hPa
Clouds: Overcast
Visibility: 10 miles , 16 km
Cloud details: Mostly cloudy 600 ft
Mostly cloudy 1000 ft
Overcast 2200 ft
2020/11/30 22:49 KRSP 302249Z AUTO 28017G29KT 10SM BKN006 BKN010 OVC022 07/07 A2936 RMK AO2 PK WND 29031/2236 CIG 003V008 $
KGAI - Gaithersburg, Maryland, USA
Distance from station: E 40mi, 64km
Updated: 11/30/2020 5:34pm
Overcast
Overcast
 Wind from WNW
Wind: WNW 8 mph , 13 km/h
Temperature: 54°F , 12°C
Dew Point: 50°F , 10°C
Humidity: 88%
Barometer: 29.40 inHg , 995.6 hPa
Clouds: Overcast
Visibility: 10 miles , 16 km
Cloud details: Overcast 3300 ft
2020/11/30 22:34 KGAI 302234Z AUTO 29007KT 10SM OVC033 12/10 A2940 RMK AO2
 
KRYT - Fountain Dale, Pennsylvania, USA
Distance from station: NE 40mi, 64km
Updated: 11/13/2017 7:53am
NOT Current
Mist, Overcast
Mist, Overcast
 Wind from calm
Wind: Calm
Temperature: 37°F , 3°C
Dew Point: 34°F , 1°C
Humidity: 87%
Barometer: 30.31 inHg , 1026.4 hPa
Summary: Mist
Clouds: Overcast
Visibility: 5 miles , 8 km
Cloud details: Overcast 700 ft
2017/11/13 12:53 KRYT 131253Z AUTO 00000KT 5SM BR OVC007 03/01 A3031 RMK AO2 SLP275 T00280011 TSNO $
KHEF - Manassas Muni, Virginia, USA
Distance from station: SSE 44mi, 72km
Updated: 11/30/2020 4:56pm

 Wind from calm
Wind: Calm
Temperature: 57°F , 14°C
Dew Point: 55°F , 13°C
Humidity: 94%
Barometer: 29.38 inHg , 994.9 hPa
Visibility: 10 miles , 16 km
2020/11/30 21:56 KHEF 302156Z 00000KT 10SM 14/13 A2938 RMK AO2 SLPNO T01440128
 
KHWY - Warrenton, Virginia, USA
Distance from station: SSE 50mi, 80km
Updated: 11/30/2020 5:35pm
Clear
Clear
 Wind from SSW
Wind: SSW 6 mph , 9 km/h
Temperature: 57°F , 14°C
Dew Point: 48°F , 9°C
Humidity: 72%
Barometer: 29.40 inHg , 995.6 hPa
Clouds: Clear
Visibility: 10 miles , 16 km
2020/11/30 22:35 KHWY 302235Z AUTO 21005KT 10SM CLR 14/09 A2940 RMK AO2 T01400094